createdAt,value
2022-09-06T00:02:20.934Z,101962.41
2022-09-06T00:04:49.308Z,101957.84
2022-09-06T00:07:17.206Z,101964.97
2022-09-06T00:09:45.121Z,101961.41
2022-09-06T00:12:13.025Z,101962.81
2022-09-06T00:14:40.929Z,101960.06
2022-09-06T00:17:10.195Z,101964.97
2022-09-06T00:19:38.177Z,101964.06
2022-09-06T00:22:06.266Z,101968.41
2022-09-06T00:24:34.226Z,101960.97
2022-09-06T00:27:02.151Z,101969.28
2022-09-06T00:29:30.067Z,101955.50
2022-09-06T00:31:57.962Z,101957.47
2022-09-06T00:34:27.820Z,101952.06
2022-09-06T00:36:55.939Z,101963.19
2022-09-06T00:39:24.081Z,101961.41
2022-09-06T00:41:52.408Z,101952.06
2022-09-06T00:44:20.587Z,101960.16
2022-09-06T00:46:50.197Z,101957.59
2022-09-06T00:49:24.305Z,101956.94
2022-09-06T00:51:56.816Z,101963.75
2022-09-06T00:54:25.085Z,101957.81
2022-09-06T00:56:53.137Z,101957.06
2022-09-06T00:59:21.325Z,101965.13
2022-09-06T01:01:49.425Z,101958.59
2022-09-06T01:04:17.494Z,101960.06
2022-09-06T01:06:54.933Z,101971.38
2022-09-06T01:09:44.139Z,101957.47
2022-09-06T01:12:24.614Z,101957.66
2022-09-06T01:15:07.012Z,101953.69
2022-09-06T01:17:44.138Z,101951.63
2022-09-06T01:20:30.571Z,101953.72
2022-09-06T01:23:49.613Z,101948.06
2022-09-06T01:26:53.004Z,101951.75
2022-09-06T01:29:30.495Z,101949.53
2022-09-06T01:32:06.257Z,101956.28
2022-09-06T01:34:41.082Z,101947.41
2022-09-06T01:37:12.415Z,101949.97
2022-09-06T01:39:42.291Z,101957.19
2022-09-06T01:42:13.096Z,101942.13
2022-09-06T01:44:46.061Z,101940.41
2022-09-06T01:47:25.249Z,101935.13
2022-09-06T01:50:11.801Z,101937.03
2022-09-06T01:52:52.686Z,101934.19
2022-09-06T01:55:30.125Z,101934.97
2022-09-06T01:58:24.000Z,101940.19
2022-09-06T02:00:57.572Z,101936.75
2022-09-06T02:03:31.380Z,101935.13
2022-09-06T02:06:05.551Z,101935.63
2022-09-06T02:08:37.194Z,101937.34
2022-09-06T02:11:08.586Z,101933.25
2022-09-06T02:13:40.572Z,101925.59
2022-09-06T02:16:13.058Z,101928.03
2022-09-06T02:18:44.887Z,101932.22
2022-09-06T02:21:17.920Z,101934.88
2022-09-06T02:23:47.838Z,101928.28
2022-09-06T02:26:21.112Z,101929.13
2022-09-06T02:28:49.244Z,101933.66
2022-09-06T02:31:24.632Z,101932.03
2022-09-06T02:33:53.262Z,101925.53
2022-09-06T02:36:21.522Z,101926.19
2022-09-06T02:38:49.621Z,101923.84
2022-09-06T02:41:22.596Z,101924.00
2022-09-06T02:43:51.273Z,101934.47
2022-09-06T02:46:20.660Z,101929.63
2022-09-06T02:48:48.620Z,101930.78
2022-09-06T02:51:16.586Z,101931.03
2022-09-06T02:53:44.641Z,101937.44
2022-09-06T02:56:12.767Z,101938.50
2022-09-06T02:58:40.885Z,101933.88
2022-09-06T03:01:09.107Z,101933.81
2022-09-06T03:03:38.495Z,101936.56
2022-09-06T03:06:06.707Z,101939.94
2022-09-06T03:08:36.424Z,101928.47
2022-09-06T03:11:04.415Z,101925.38
2022-09-06T03:13:32.372Z,101928.34
2022-09-06T03:16:01.225Z,101927.53
2022-09-06T03:18:31.005Z,101927.00
2022-09-06T03:21:00.746Z,101921.16
2022-09-06T03:23:30.138Z,101925.63
2022-09-06T03:25:58.422Z,101922.22
2022-09-06T03:28:26.488Z,101922.28
2022-09-06T03:30:54.725Z,101922.22
2022-09-06T03:33:22.905Z,101923.72
2022-09-06T03:35:52.786Z,101919.50
2022-09-06T03:38:23.398Z,101925.19
2022-09-06T03:40:52.832Z,101923.59
2022-09-06T03:43:21.756Z,101911.34
2022-09-06T03:45:51.357Z,101911.63
2022-09-06T03:48:20.773Z,101916.69
2022-09-06T03:50:50.481Z,101915.72
2022-09-06T03:53:19.412Z,101915.81
2022-09-06T03:55:50.461Z,101913.94
2022-09-06T03:58:20.365Z,101914.13
2022-09-06T04:00:48.575Z,101916.34
2022-09-06T04:03:19.402Z,101922.53
2022-09-06T04:05:47.396Z,101925.81
2022-09-06T04:08:15.311Z,101932.81
2022-09-06T04:10:43.344Z,101923.56
2022-09-06T04:13:12.684Z,101926.28
2022-09-06T04:15:40.604Z,101917.94
2022-09-06T04:18:09.353Z,101918.50
2022-09-06T04:20:37.491Z,101907.34
2022-09-06T04:23:05.387Z,101911.41
2022-09-06T04:25:33.413Z,101906.53
2022-09-06T04:28:01.411Z,101915.50
2022-09-06T04:30:30.771Z,101921.66
2022-09-06T04:32:58.849Z,101898.03
2022-09-06T04:35:26.853Z,101903.34
2022-09-06T04:37:54.790Z,101905.69
2022-09-06T04:40:22.719Z,101910.06
2022-09-06T04:42:50.628Z,101908.19
2022-09-06T04:45:18.597Z,101909.13
2022-09-06T04:47:48.134Z,101917.97
2022-09-06T04:50:16.116Z,101907.16
2022-09-06T04:52:49.223Z,101898.44
2022-09-06T04:55:17.263Z,101903.81
2022-09-06T04:57:49.546Z,101891.56
2022-09-06T05:00:19.406Z,101896.03
2022-09-06T05:02:48.673Z,101890.09
2022-09-06T05:05:16.703Z,101893.97
2022-09-06T05:07:44.608Z,101899.19
2022-09-06T05:10:12.549Z,101895.75
2022-09-06T05:12:44.200Z,101898.53
2022-09-06T05:15:12.604Z,101881.56
2022-09-06T05:17:40.548Z,101885.75
2022-09-06T05:20:11.680Z,101872.25
2022-09-06T05:22:40.028Z,101874.25
2022-09-06T05:25:08.630Z,101877.72
2022-09-06T05:27:36.693Z,101884.78
2022-09-06T05:30:05.483Z,101879.66
2022-09-06T05:32:33.391Z,101886.84
2022-09-06T05:35:01.293Z,101873.00
2022-09-06T05:37:30.597Z,101884.19
2022-09-06T05:40:00.217Z,101889.69
2022-09-06T05:42:28.380Z,101887.66
2022-09-06T05:44:56.317Z,101887.88
2022-09-06T05:47:24.219Z,101889.50
2022-09-06T05:49:52.389Z,101898.56
2022-09-06T05:52:20.287Z,101899.00
2022-09-06T05:54:49.601Z,101899.75
2022-09-06T05:57:17.529Z,101896.44
2022-09-06T05:59:45.448Z,101905.63
2022-09-06T06:02:13.405Z,101898.22
2022-09-06T06:04:41.434Z,101891.41
2022-09-06T06:07:09.298Z,101892.25
2022-09-06T06:09:37.247Z,101889.59
2022-09-06T06:12:07.372Z,101878.03
2022-09-06T06:14:35.408Z,101875.31
2022-09-06T06:17:03.397Z,101871.53
2022-09-06T06:19:31.496Z,101870.00
2022-09-06T06:21:59.402Z,101868.38
2022-09-06T06:24:27.308Z,101870.44
2022-09-06T06:26:55.553Z,101867.53
2022-09-06T06:29:25.343Z,101872.81
2022-09-06T06:31:53.320Z,101876.97
2022-09-06T06:34:21.962Z,101876.34
2022-09-06T06:36:49.868Z,101870.75
2022-09-06T06:39:17.791Z,101874.69
2022-09-06T06:41:45.786Z,101878.19
2022-09-06T06:44:37.873Z,101877.59
2022-09-06T06:47:06.016Z,101877.31
2022-09-06T06:49:33.953Z,101875.91
2022-09-06T06:52:01.851Z,101868.13
2022-09-06T06:54:29.795Z,101867.03
2022-09-06T06:56:57.684Z,101867.13
2022-09-06T06:59:25.688Z,101870.63
2022-09-06T07:01:55.041Z,101864.91
2022-09-06T07:04:23.250Z,101866.41
2022-09-06T07:12:28.692Z,101855.94
2022-09-06T07:14:56.659Z,101852.72
2022-09-06T07:17:26.026Z,101868.50
2022-09-06T07:22:41.958Z,101869.94
2022-09-06T07:25:14.380Z,101869.09
2022-09-06T07:30:19.623Z,101863.13
2022-09-06T07:32:49.172Z,101875.09
2022-09-06T07:35:17.529Z,101878.38
2022-09-06T07:37:53.103Z,101872.41
2022-09-06T07:40:21.099Z,101873.66
2022-09-06T07:42:49.193Z,101887.50
2022-09-06T07:45:17.598Z,101870.25
2022-09-06T07:48:00.871Z,101874.25
2022-09-06T07:50:47.871Z,101873.94
2022-09-06T07:53:23.299Z,101871.38
2022-09-06T07:55:57.089Z,101857.44
2022-09-06T07:58:25.023Z,101853.13
2022-09-06T08:00:53.043Z,101848.56
2022-09-06T08:03:21.174Z,101857.69
2022-09-06T08:11:24.006Z,101857.25
2022-09-06T08:13:52.632Z,101851.97
2022-09-06T08:16:20.654Z,101853.84
2022-09-06T08:18:52.489Z,101849.31
2022-09-06T08:21:23.918Z,101850.22
2022-09-06T08:23:53.624Z,101853.53
2022-09-06T08:26:23.798Z,101857.34
2022-09-06T08:28:54.926Z,101856.78
2022-09-06T08:31:22.949Z,101859.16
2022-09-06T08:33:52.198Z,101858.63
2022-09-06T08:36:21.839Z,101865.28
2022-09-06T08:38:49.792Z,101855.59
2022-09-06T08:41:25.948Z,101854.50
2022-09-06T08:46:53.768Z,101853.50
2022-09-06T08:49:22.060Z,101841.00
2022-09-06T08:52:21.681Z,101849.69
2022-09-06T08:54:56.634Z,101843.94
2022-09-06T08:57:41.816Z,101851.28
2022-09-06T09:00:13.099Z,101842.38
2022-09-06T09:02:45.364Z,101834.09
2022-09-06T09:05:27.488Z,101822.47
2022-09-06T09:08:09.417Z,101828.28
2022-09-06T09:10:43.486Z,101826.34
2022-09-06T09:13:23.294Z,101829.38
2022-09-06T09:15:51.259Z,101828.63
2022-09-06T09:18:24.677Z,101828.09
2022-09-06T09:20:52.839Z,101826.22
2022-09-06T09:23:22.210Z,101818.03
2022-09-06T09:25:53.730Z,101819.97
2022-09-06T09:28:25.108Z,101810.31
2022-09-06T09:30:54.965Z,101809.50
2022-09-06T09:33:25.701Z,101805.72
2022-09-06T09:35:54.347Z,101801.38
2022-09-06T09:38:25.739Z,101808.31
2022-09-06T09:40:55.868Z,101803.50
2022-09-06T09:43:25.775Z,101793.84
2022-09-06T09:46:16.233Z,101789.38
2022-09-06T09:48:49.655Z,101783.88
2022-09-06T09:51:26.541Z,101785.00
2022-09-06T09:53:57.526Z,101777.41
2022-09-06T09:56:33.582Z,101775.56
2022-09-06T09:59:03.685Z,101775.50
2022-09-06T10:01:33.899Z,101776.59
2022-09-06T10:07:08.165Z,101762.56
2022-09-06T10:09:40.884Z,101761.22
2022-09-06T10:12:09.126Z,101760.28
2022-09-06T10:14:43.225Z,101759.81
2022-09-06T10:17:20.109Z,101757.16
2022-09-06T10:19:48.788Z,101753.50
2022-09-06T10:22:28.274Z,101753.19
2022-09-06T10:25:16.135Z,101755.97
2022-09-06T10:28:11.244Z,101749.00
2022-09-06T10:30:45.951Z,101741.94
2022-09-06T10:33:23.446Z,101752.84
2022-09-06T10:35:51.305Z,101745.41
2022-09-06T10:38:36.810Z,101740.63
2022-09-06T10:41:25.115Z,101737.41
2022-09-06T10:44:01.996Z,101745.03
2022-09-06T10:46:34.952Z,101731.94
2022-09-06T10:49:02.936Z,101739.25
2022-09-06T10:51:37.898Z,101726.00
2022-09-06T10:54:10.582Z,101722.44
2022-09-06T10:56:44.673Z,101716.94
2022-09-06T10:59:35.956Z,101719.19
2022-09-06T11:02:17.396Z,101722.25
2022-09-06T11:07:41.761Z,101709.59
2022-09-06T11:10:18.752Z,101718.03
2022-09-06T11:12:52.982Z,101710.25
2022-09-06T11:15:23.237Z,101719.06
2022-09-06T11:17:58.352Z,101708.09
2022-09-06T11:20:32.257Z,101719.19
2022-09-06T11:23:26.706Z,101703.09
2022-09-06T11:26:28.887Z,101713.69
2022-09-06T11:29:00.414Z,101710.19
2022-09-06T11:34:25.247Z,101694.66
2022-09-06T11:36:57.046Z,101699.03
2022-09-06T11:42:41.933Z,101703.19
2022-09-06T11:45:22.204Z,101689.13
2022-09-06T11:47:52.038Z,101696.28
2022-09-06T11:50:26.468Z,101695.09
2022-09-06T11:53:12.826Z,101690.19
2022-09-06T11:55:41.915Z,101691.56
2022-09-06T11:58:20.641Z,101685.25
2022-09-06T12:01:27.225Z,101686.13
2022-09-06T12:04:10.279Z,101682.72
2022-09-06T12:06:41.232Z,101689.13
2022-09-06T12:09:29.902Z,101694.94
2022-09-06T12:11:59.645Z,101685.06
2022-09-06T12:14:33.366Z,101686.91
2022-09-06T12:17:47.657Z,101680.06
2022-09-06T12:20:48.838Z,101676.47
2022-09-06T12:23:49.227Z,101677.09
2022-09-06T12:26:55.276Z,101669.19
2022-09-06T12:29:26.412Z,101667.50
2022-09-06T12:31:58.726Z,101671.59
2022-09-06T12:34:33.736Z,101659.47
2022-09-06T12:37:04.668Z,101650.97
2022-09-06T12:39:32.954Z,101649.94
2022-09-06T12:42:05.852Z,101657.25
2022-09-06T12:44:35.517Z,101653.41
2022-09-06T12:47:10.955Z,101650.28
2022-09-06T12:49:40.204Z,101647.53
2022-09-06T12:52:11.451Z,101653.97
2022-09-06T12:54:45.500Z,101647.31
2022-09-06T12:57:16.167Z,101638.75
2022-09-06T12:59:55.016Z,101646.81
2022-09-06T13:02:34.272Z,101641.84
2022-09-06T13:05:06.561Z,101630.03
2022-09-06T13:07:45.110Z,101629.41
2022-09-06T13:10:16.773Z,101630.63
2022-09-06T13:12:46.739Z,101630.56
2022-09-06T13:15:19.879Z,101627.72
2022-09-06T13:17:47.764Z,101615.78
2022-09-06T13:20:25.843Z,101612.41
2022-09-06T13:23:06.028Z,101612.28
2022-09-06T13:25:34.121Z,101610.38
2022-09-06T13:28:03.604Z,101611.06
2022-09-06T13:30:35.216Z,101596.06
2022-09-06T13:33:04.280Z,101594.78
2022-09-06T13:35:36.930Z,101595.91
2022-09-06T13:38:32.691Z,101608.78
2022-09-06T13:41:16.899Z,101600.56
2022-09-06T13:43:47.987Z,101600.53
2022-09-06T13:46:16.125Z,101597.47
2022-09-06T13:48:45.023Z,101603.00
2022-09-06T13:51:14.409Z,101593.94
2022-09-06T13:53:42.465Z,101604.59
2022-09-06T13:56:11.942Z,101599.31
2022-09-06T13:58:39.991Z,101597.00
2022-09-06T14:01:09.888Z,101597.41
2022-09-06T14:03:41.761Z,101598.88
2022-09-06T14:06:10.929Z,101596.28
2022-09-06T14:11:28.669Z,101599.44
2022-09-06T14:13:56.679Z,101592.34
2022-09-06T14:16:24.917Z,101587.03
2022-09-06T14:18:53.024Z,101596.56
2022-09-06T14:21:21.244Z,101585.16
2022-09-06T14:23:52.571Z,101576.94
2022-09-06T14:26:21.452Z,101586.81
2022-09-06T14:28:49.863Z,101594.88
2022-09-06T14:31:20.481Z,101584.53
2022-09-06T14:33:49.542Z,101584.22
2022-09-06T14:36:20.100Z,101584.44
2022-09-06T14:38:48.598Z,101591.56
2022-09-06T14:41:19.466Z,101588.16
2022-09-06T14:43:50.606Z,101584.53
2022-09-06T14:46:20.303Z,101587.56
2022-09-06T14:48:48.877Z,101582.78
2022-09-06T14:51:21.809Z,101585.13
2022-09-06T14:53:51.332Z,101579.59
2022-09-06T14:56:21.824Z,101581.34
2022-09-06T14:58:50.417Z,101583.47
2022-09-06T15:01:21.824Z,101577.50
2022-09-06T15:03:52.586Z,101571.69
2022-09-06T15:06:22.463Z,101561.31
2022-09-06T15:08:52.854Z,101566.41
2022-09-06T15:11:34.330Z,101570.78
2022-09-06T15:14:04.047Z,101573.38
2022-09-06T15:16:33.368Z,101572.25
2022-09-06T15:19:02.947Z,101568.41
2022-09-06T15:21:32.235Z,101562.91
2022-09-06T15:24:02.014Z,101565.41
2022-09-06T15:26:31.777Z,101558.03
2022-09-06T15:28:59.739Z,101554.00
2022-09-06T15:31:27.815Z,101547.84
2022-09-06T15:33:55.797Z,101548.13
2022-09-06T15:36:24.076Z,101548.78
2022-09-06T15:38:54.196Z,101551.34
2022-09-06T15:41:24.334Z,101554.19
2022-09-06T15:43:55.451Z,101550.84
2022-09-06T15:46:42.247Z,101539.94
2022-09-06T15:49:11.886Z,101547.84
2022-09-06T15:51:41.991Z,101550.16
2022-09-06T15:54:11.011Z,101539.50
2022-09-06T15:56:39.668Z,101541.63
2022-09-06T15:59:09.271Z,101541.38
2022-09-06T16:01:37.834Z,101538.28
2022-09-06T16:04:07.168Z,101526.97
2022-09-06T16:06:37.860Z,101530.31
2022-09-06T16:09:07.693Z,101530.72
2022-09-06T16:11:36.844Z,101517.25
2022-09-06T16:14:06.427Z,101519.25
2022-09-06T16:16:36.340Z,101514.81
2022-09-06T16:19:04.907Z,101519.78
2022-09-06T16:21:35.196Z,101515.31
2022-09-06T16:24:05.855Z,101522.63
2022-09-06T16:26:36.196Z,101525.13
2022-09-06T16:29:05.919Z,101526.09
2022-09-06T16:31:40.010Z,101520.56
2022-09-06T16:34:08.815Z,101512.53
2022-09-06T16:36:36.889Z,101522.84
2022-09-06T16:39:05.420Z,101526.19
2022-09-06T16:41:39.378Z,101527.34
2022-09-06T16:44:07.656Z,101529.16
2022-09-06T16:46:40.035Z,101523.38
2022-09-06T16:49:08.135Z,101523.28
2022-09-06T16:51:36.911Z,101520.72
2022-09-06T16:54:05.479Z,101517.75
2022-09-06T16:56:35.906Z,101516.41
2022-09-06T16:59:06.805Z,101516.63
2022-09-06T17:01:37.877Z,101511.78
2022-09-06T17:04:06.752Z,101517.31
2022-09-06T17:06:42.161Z,101499.22
2022-09-06T17:09:10.148Z,101511.88
2022-09-06T17:11:40.036Z,101509.56
2022-09-06T17:14:08.275Z,101510.00
2022-09-06T17:16:55.446Z,101499.00
2022-09-06T17:19:23.658Z,101501.28
2022-09-06T17:21:51.684Z,101505.81
2022-09-06T17:24:19.635Z,101506.66
2022-09-06T17:26:47.640Z,101508.38
2022-09-06T17:29:15.623Z,101505.31
2022-09-06T17:31:44.988Z,101501.28
2022-09-06T17:34:12.949Z,101495.81
2022-09-06T17:36:40.940Z,101498.25
2022-09-06T17:39:11.347Z,101487.91
2022-09-06T17:41:42.193Z,101487.38
2022-09-06T17:44:11.692Z,101487.38
2022-09-06T17:46:51.912Z,101503.03
2022-09-06T17:49:27.143Z,101504.88
2022-09-06T17:51:55.270Z,101508.56
2022-09-06T17:54:23.485Z,101506.16
2022-09-06T17:56:51.460Z,101512.06
2022-09-06T17:59:19.791Z,101519.19
2022-09-06T18:01:47.972Z,101520.06
2022-09-06T18:04:16.342Z,101522.19
2022-09-06T18:06:46.758Z,101526.31
2022-09-06T18:09:17.889Z,101529.72
2022-09-06T18:11:47.114Z,101526.66
2022-09-06T18:14:17.889Z,101528.25
2022-09-06T18:16:48.918Z,101529.72
2022-09-06T18:19:17.692Z,101532.34
2022-09-06T18:21:48.167Z,101526.16
2022-09-06T18:24:16.598Z,101529.25
2022-09-06T18:26:44.834Z,101529.78
2022-09-06T18:29:14.846Z,101531.38
2022-09-06T18:31:43.526Z,101525.25
2022-09-06T18:34:12.435Z,101529.81
2022-09-06T18:36:40.745Z,101531.56
2022-09-06T18:39:11.294Z,101532.81
2022-09-06T18:41:53.105Z,101531.94
2022-09-06T18:44:21.637Z,101528.75
2022-09-06T18:46:49.935Z,101529.59
2022-09-06T18:49:19.071Z,101538.81
2022-09-06T18:51:47.465Z,101535.63
2022-09-06T18:54:17.391Z,101533.34
2022-09-06T18:56:45.700Z,101528.94
2022-09-06T18:59:14.595Z,101535.22
2022-09-06T19:01:43.230Z,101519.94
2022-09-06T19:04:12.094Z,101532.88
2022-09-06T19:06:42.105Z,101528.25
2022-09-06T19:09:12.460Z,101531.66
2022-09-06T19:11:43.446Z,101534.75
2022-09-06T19:14:11.423Z,101530.84
2022-09-06T19:16:39.549Z,101532.53
2022-09-06T19:19:09.855Z,101532.84
2022-09-06T19:21:41.682Z,101527.78
2022-09-06T19:24:12.118Z,101531.19
2022-09-06T19:26:44.127Z,101533.41
2022-09-06T19:29:15.075Z,101539.94
2022-09-06T19:31:43.844Z,101534.66
2022-09-06T19:34:13.516Z,101532.25
2022-09-06T19:36:41.810Z,101536.31
2022-09-06T19:39:13.108Z,101522.88
2022-09-06T19:41:45.144Z,101527.84
2022-09-06T19:44:13.759Z,101527.16
2022-09-06T19:46:45.680Z,101524.63
2022-09-06T19:49:15.012Z,101518.31
2022-09-06T19:51:43.832Z,101513.50
2022-09-06T19:54:12.034Z,101517.84
2022-09-06T19:56:40.326Z,101505.41
2022-09-06T19:59:12.152Z,101504.19
2022-09-06T20:01:41.588Z,101502.97
2022-09-06T20:04:11.738Z,101507.75
2022-09-06T20:06:40.607Z,101513.16
2022-09-06T20:09:11.297Z,101521.50
2022-09-06T20:11:40.952Z,101514.41
2022-09-06T20:14:11.917Z,101513.75
2022-09-06T20:16:42.261Z,101519.31
2022-09-06T20:19:12.504Z,101518.50
2022-09-06T20:21:40.555Z,101510.84
2022-09-06T20:24:09.507Z,101506.78
2022-09-06T20:26:39.072Z,101512.19
2022-09-06T20:29:07.992Z,101507.09
2022-09-06T20:31:38.501Z,101499.91
2022-09-06T20:34:07.429Z,101504.03
2022-09-06T20:36:35.525Z,101503.72
2022-09-06T20:39:03.557Z,101505.59
2022-09-06T20:41:32.004Z,101497.22
2022-09-06T20:44:00.770Z,101491.66
2022-09-06T20:46:30.160Z,101489.25
2022-09-06T20:49:03.630Z,101481.09
2022-09-06T20:51:32.941Z,101493.84
2022-09-06T20:54:02.158Z,101487.19
2022-09-06T20:56:33.183Z,101489.56
2022-09-06T20:59:03.775Z,101474.81
2022-09-06T21:01:35.066Z,101470.75
2022-09-06T21:04:07.527Z,101471.91
2022-09-06T21:06:37.067Z,101474.66
2022-09-06T21:09:06.232Z,101468.19
2022-09-06T21:11:34.245Z,101471.41
2022-09-06T21:14:02.790Z,101470.38
2022-09-06T21:16:31.614Z,101469.22
2022-09-06T21:19:01.607Z,101467.53
2022-09-06T21:21:32.785Z,101471.88
2022-09-06T21:24:01.795Z,101463.59
2022-09-06T21:26:30.461Z,101460.34
2022-09-06T21:28:58.830Z,101465.28
2022-09-06T21:31:28.569Z,101464.41
2022-09-06T21:33:58.374Z,101462.56
2022-09-06T21:36:29.358Z,101467.47
2022-09-06T21:39:01.075Z,101455.91
2022-09-06T21:41:29.818Z,101449.13
2022-09-06T21:43:59.665Z,101447.91
2022-09-06T21:46:32.842Z,101453.72
2022-09-06T21:49:04.219Z,101448.63
2022-09-06T21:51:33.509Z,101446.91
2022-09-06T21:54:04.884Z,101442.50
2022-09-06T21:56:33.971Z,101442.84
2022-09-06T21:59:02.128Z,101440.78
2022-09-06T22:01:32.898Z,101435.84
2022-09-06T22:04:02.254Z,101432.47
2022-09-06T22:06:31.922Z,101422.78
2022-09-06T22:09:03.146Z,101429.25
2022-09-06T22:11:33.007Z,101430.25
2022-09-06T22:14:02.957Z,101421.56
2022-09-06T22:16:33.007Z,101422.75
2022-09-06T22:19:01.310Z,101422.75
2022-09-06T22:21:29.326Z,101423.41
2022-09-06T22:23:59.104Z,101422.06
2022-09-06T22:26:30.504Z,101417.00
2022-09-06T22:28:59.826Z,101409.50
2022-09-06T22:31:30.297Z,101414.28
2022-09-06T22:33:58.916Z,101410.19
2022-09-06T22:36:27.497Z,101408.16
2022-09-06T22:38:57.478Z,101400.50
2022-09-06T22:41:27.048Z,101403.97
2022-09-06T22:43:56.744Z,101398.28
2022-09-06T22:46:25.017Z,101397.97
2022-09-06T22:48:53.219Z,101392.78
2022-09-06T22:51:21.219Z,101389.94
2022-09-06T22:53:49.210Z,101390.97
2022-09-06T22:56:17.589Z,101392.47
2022-09-06T22:58:45.551Z,101388.84
2022-09-06T23:01:16.648Z,101397.59
2022-09-06T23:03:45.619Z,101395.72
2022-09-06T23:06:13.915Z,101393.88
2022-09-06T23:08:42.136Z,101390.97
2022-09-06T23:11:12.448Z,101388.63
2022-09-06T23:13:43.442Z,101387.34
2022-09-06T23:16:13.217Z,101382.38
2022-09-06T23:18:43.033Z,101377.66
2022-09-06T23:21:13.176Z,101381.22
2022-09-06T23:23:42.201Z,101372.59
2022-09-06T23:26:12.804Z,101382.03
2022-09-06T23:28:40.796Z,101385.81
2022-09-06T23:31:11.362Z,101388.75
2022-09-06T23:33:40.410Z,101381.47
2022-09-06T23:36:12.006Z,101382.94
2022-09-06T23:38:41.716Z,101382.88
2022-09-06T23:41:10.378Z,101390.72
2022-09-06T23:43:38.740Z,101387.66
2022-09-06T23:46:07.476Z,101391.03
2022-09-06T23:48:36.187Z,101393.31
2022-09-06T23:51:04.802Z,101394.44
2022-09-06T23:53:34.325Z,101395.81
2022-09-06T23:56:02.403Z,101390.72
2022-09-06T23:58:31.068Z,101381.59
